Time;durP1;ratioP1;P1;durP2;ratioP2;P2;SDS_P1;SDS_P2;PMS_P1;PMS_P2;Temp;Humidity;BMP_temperature;BMP_pressure;BME280_temperature;BME280_humidity;BME280_pressure;Samples;Min_cycle;Max_cycle;Signal;HPM_P1;HPM_P2
2023/06/04 00:01:21;;;;;;;3.47;1.55;;;12.20;99.90;;;;;;5141639;27;20047;-66
2023/06/04 00:03:47;;;;;;;2.85;1.67;;;12.20;99.90;;;;;;5124313;27;20083;-66
2023/06/04 00:06:12;;;;;;;4.15;1.73;;;12.20;99.90;;;;;;5133633;27;20054;-66
2023/06/04 00:08:38;;;;;;;3.67;1.73;;;12.20;99.90;;;;;;5141255;27;20043;-66
2023/06/04 00:11:04;;;;;;;4.10;1.92;;;12.20;99.90;;;;;;5144824;27;20071;-66
2023/06/04 00:13:29;;;;;;;3.28;1.70;;;12.10;99.90;;;;;;5144519;27;20043;-67
2023/06/04 00:15:55;;;;;;;2.80;1.58;;;12.10;99.90;;;;;;5133913;27;20051;-66
2023/06/04 00:18:21;;;;;;;2.80;1.60;;;12.00;99.90;;;;;;5133999;27;20087;-66
2023/06/04 00:20:46;;;;;;;3.88;2.00;;;12.00;99.90;;;;;;5141891;27;20045;-66
2023/06/04 00:23:12;;;;;;;4.70;1.90;;;12.00;99.90;;;;;;5145205;27;20090;-66
2023/06/04 00:25:38;;;;;;;3.90;1.77;;;11.90;99.90;;;;;;5143817;27;20082;-66
2023/06/04 00:28:04;;;;;;;3.05;1.95;;;11.90;99.90;;;;;;5102585;27;20047;-66
2023/06/04 00:30:29;;;;;;;3.88;1.80;;;11.80;99.90;;;;;;5152001;27;20107;-68
2023/06/04 00:32:55;;;;;;;2.78;1.80;;;11.70;99.90;;;;;;5142333;27;20519;-66
2023/06/04 00:35:21;;;;;;;2.97;1.95;;;11.70;99.90;;;;;;5134256;27;20464;-67
2023/06/04 00:37:47;;;;;;;5.45;2.10;;;11.70;99.90;;;;;;5143219;27;20476;-66
2023/06/04 00:40:13;;;;;;;3.45;1.73;;;11.70;99.90;;;;;;5133482;27;20122;-66
2023/06/04 00:42:38;;;;;;;3.22;1.60;;;11.70;99.90;;;;;;5115312;27;20096;-66
2023/06/04 00:45:07;;;;;;;4.82;2.10;;;11.70;99.90;;;;;;5134182;27;20070;-66
2023/06/04 00:47:33;;;;;;;5.43;2.05;;;11.70;99.90;;;;;;5125591;27;20043;-66
2023/06/04 00:49:59;;;;;;;3.78;1.92;;;11.70;99.90;;;;;;5133650;27;20441;-66
2023/06/04 00:52:25;;;;;;;5.95;2.00;;;11.60;99.90;;;;;;5133589;27;20517;-66
2023/06/04 00:54:54;;;;;;;4.18;2.20;;;11.60;99.90;;;;;;5133803;27;20118;-66
2023/06/04 00:57:21;;;;;;;4.43;2.00;;;11.60;99.90;;;;;;5133429;27;20046;-66
2023/06/04 00:59:47;;;;;;;3.60;2.40;;;11.50;99.90;;;;;;5152650;27;20038;-66
2023/06/04 01:02:22;;;;;;;2.95;1.83;;;11.40;99.90;;;;;;5133285;27;20043;-66
2023/06/04 01:04:52;;;;;;;3.83;2.00;;;11.30;99.90;;;;;;5119039;27;20390;-66
2023/06/04 01:07:19;;;;;;;5.10;2.03;;;11.20;99.90;;;;;;5135902;27;20055;-66
2023/06/04 01:09:45;;;;;;;3.35;2.10;;;11.10;99.90;;;;;;5119574;27;20061;-66
2023/06/04 01:12:11;;;;;;;5.35;2.17;;;11.00;99.90;;;;;;5143237;27;20484;-66
2023/06/04 01:14:37;;;;;;;4.13;2.35;;;10.80;99.90;;;;;;5117284;27;20042;-66
2023/06/04 01:17:37;;;;;;;4.13;2.33;;;10.70;99.90;;;;;;5135249;27;20043;-66
2023/06/04 01:20:21;;;;;;;5.28;2.03;;;10.70;99.90;;;;;;5119910;27;20490;-66
2023/06/04 01:22:51;;;;;;;4.80;2.17;;;10.60;99.90;;;;;;5147216;27;20077;-66
2023/06/04 01:25:28;;;;;;;5.90;2.60;;;10.50;99.90;;;;;;5133396;27;20093;-66
2023/06/04 01:27:56;;;;;;;7.78;2.40;;;10.50;99.90;;;;;;5136616;27;20046;-66
2023/06/04 01:30:31;;;;;;;4.53;2.60;;;10.50;99.90;;;;;;5154109;27;20111;-66
2023/06/04 01:32:58;;;;;;;6.53;2.55;;;10.50;99.90;;;;;;5153501;27;20043;-66
2023/06/04 01:35:25;;;;;;;4.53;2.22;;;10.50;99.90;;;;;;5153937;27;20043;-66
2023/06/04 01:37:51;;;;;;;4.75;2.53;;;10.50;99.90;;;;;;5152576;27;20076;-66
2023/06/04 01:40:17;;;;;;;5.78;2.72;;;10.50;99.90;;;;;;5121092;28;20171;-66
2023/06/04 01:42:43;;;;;;;5.43;2.40;;;10.50;99.90;;;;;;5115235;27;20473;-66
2023/06/04 01:45:09;;;;;;;5.30;2.60;;;10.50;99.90;;;;;;5133352;27;20046;-66
2023/06/04 01:47:35;;;;;;;3.42;2.38;;;10.40;99.90;;;;;;5133238;27;20043;-66
2023/06/04 01:50:08;;;;;;;4.28;2.38;;;10.40;99.90;;;;;;5133026;27;20054;-66
2023/06/04 01:52:36;;;;;;;4.60;2.50;;;10.40;99.90;;;;;;5137045;27;20039;-66
2023/06/04 01:55:07;;;;;;;4.30;2.80;;;10.30;99.90;;;;;;5146601;27;20087;-66
2023/06/04 01:57:33;;;;;;;4.35;2.40;;;10.20;99.90;;;;;;5139992;27;20105;-66
2023/06/04 01:59:59;;;;;;;3.95;2.25;;;10.20;99.90;;;;;;5155057;27;20046;-66
2023/06/04 02:02:25;;;;;;;6.80;2.92;;;10.20;99.90;;;;;;5132856;27;20103;-66
2023/06/04 02:04:51;;;;;;;5.05;2.92;;;10.10;99.90;;;;;;5136605;27;20043;-66
2023/06/04 02:07:20;;;;;;;6.03;2.40;;;10.10;99.90;;;;;;5136472;27;20039;-67
2023/06/04 02:09:49;;;;;;;4.22;2.42;;;10.20;99.90;;;;;;5138251;27;20097;-66
2023/06/04 02:12:15;;;;;;;7.32;2.63;;;10.20;99.90;;;;;;5136695;27;20043;-66
2023/06/04 02:14:41;;;;;;;6.22;2.67;;;10.20;99.90;;;;;;5136210;27;20035;-66
2023/06/04 02:17:12;;;;;;;4.68;2.40;;;10.20;99.90;;;;;;5145261;27;20602;-66
2023/06/04 02:19:49;;;;;;;4.55;2.38;;;10.20;99.90;;;;;;5123933;27;20059;-66
2023/06/04 02:22:19;;;;;;;5.38;2.58;;;10.20;99.90;;;;;;5137061;27;20388;-66
2023/06/04 02:24:46;;;;;;;5.07;2.40;;;10.30;99.90;;;;;;5136205;27;20050;-66
2023/06/04 02:27:12;;;;;;;5.85;2.90;;;10.20;99.90;;;;;;5149061;27;20060;-66
2023/06/04 02:29:39;;;;;;;3.90;2.42;;;10.20;99.90;;;;;;5141481;27;20062;-66
2023/06/04 02:32:06;;;;;;;4.32;3.00;;;10.20;99.90;;;;;;5153225;27;20039;-66
2023/06/04 02:34:31;;;;;;;4.45;2.70;;;10.10;99.90;;;;;;5155189;27;20176;-66
2023/06/04 02:36:58;;;;;;;4.78;2.50;;;10.10;99.90;;;;;;5136107;27;20491;-66
2023/06/04 02:39:24;;;;;;;5.40;3.58;;;10.00;99.90;;;;;;5130747;27;20050;-66
2023/06/04 02:41:50;;;;;;;4.75;2.55;;;10.00;99.90;;;;;;5136022;27;20043;-66
2023/06/04 02:44:15;;;;;;;4.80;2.53;;;10.00;99.90;;;;;;5128724;27;20204;-66
2023/06/04 02:46:41;;;;;;;6.18;2.70;;;10.00;99.90;;;;;;5134800;27;20050;-66
2023/06/04 02:49:07;;;;;;;6.63;2.65;;;10.00;99.90;;;;;;5135533;27;20049;-66
2023/06/04 02:51:32;;;;;;;5.07;2.90;;;10.00;99.90;;;;;;5135661;27;20487;-66
2023/06/04 02:53:58;;;;;;;5.50;2.42;;;10.00;99.90;;;;;;5136695;27;20487;-66
2023/06/04 02:56:25;;;;;;;6.15;2.80;;;10.10;99.90;;;;;;5151192;27;20476;-66
2023/06/04 02:58:53;;;;;;;4.45;2.70;;;10.10;99.90;;;;;;5146475;27;20062;-66
2023/06/04 03:01:23;;;;;;;4.88;3.08;;;10.10;99.90;;;;;;5124251;27;20039;-66
2023/06/04 03:03:49;;;;;;;4.57;2.75;;;10.10;99.90;;;;;;5133749;27;20104;-67
2023/06/04 03:06:16;;;;;;;4.15;2.50;;;10.10;99.90;;;;;;5116918;27;20046;-66
2023/06/04 03:08:43;;;;;;;4.95;2.90;;;10.10;99.90;;;;;;5135291;27;20039;-66
2023/06/04 03:11:08;;;;;;;4.30;2.60;;;10.10;99.90;;;;;;5135242;27;20039;-66
2023/06/04 03:13:35;;;;;;;6.65;3.50;;;10.10;99.90;;;;;;5134645;27;20088;-66
2023/06/04 03:16:02;;;;;;;5.60;2.80;;;10.10;99.90;;;;;;5116430;27;20151;-66
2023/06/04 03:18:30;;;;;;;7.18;3.03;;;10.00;99.90;;;;;;5150101;27;20440;-66
2023/06/04 03:20:57;;;;;;;7.47;3.28;;;10.00;99.90;;;;;;5135043;27;20043;-66
2023/06/04 03:23:23;;;;;;;7.35;3.25;;;10.00;99.90;;;;;;5128788;27;20051;-66
2023/06/04 03:25:48;;;;;;;6.03;2.95;;;9.90;99.90;;;;;;5103561;27;20387;-66
2023/06/04 03:28:14;;;;;;;5.35;2.92;;;10.00;99.90;;;;;;5154933;27;20047;-66
2023/06/04 03:30:43;;;;;;;7.55;3.20;;;10.00;99.90;;;;;;5145058;27;20133;-66
2023/06/04 03:33:08;;;;;;;5.65;2.88;;;10.00;99.90;;;;;;5137270;27;20046;-66
2023/06/04 03:35:34;;;;;;;5.78;3.10;;;10.00;99.90;;;;;;5142152;27;20042;-66
2023/06/04 03:38:00;;;;;;;7.32;3.40;;;10.00;99.90;;;;;;5135660;27;20395;-66
2023/06/04 03:40:26;;;;;;;6.00;3.42;;;10.00;99.90;;;;;;5118355;27;20112;-67
2023/06/04 03:42:51;;;;;;;5.82;3.10;;;9.90;99.90;;;;;;5155350;27;20061;-66
2023/06/04 03:45:17;;;;;;;4.78;3.00;;;10.00;99.90;;;;;;5139596;27;20057;-66
2023/06/04 03:47:43;;;;;;;5.63;3.10;;;9.90;99.90;;;;;;5116561;27;20069;-66
2023/06/04 03:50:09;;;;;;;4.93;3.03;;;9.90;99.90;;;;;;5134640;27;20046;-66
2023/06/04 03:52:35;;;;;;;5.47;3.28;;;9.90;99.90;;;;;;5116143;27;20043;-66
2023/06/04 03:55:01;;;;;;;4.57;3.17;;;9.90;99.90;;;;;;5134396;27;20453;-66
2023/06/04 03:57:27;;;;;;;5.25;3.47;;;9.90;99.90;;;;;;5134110;27;20035;-66
2023/06/04 03:59:53;;;;;;;6.32;3.53;;;10.00;99.90;;;;;;5154206;27;20051;-66
2023/06/04 04:02:18;;;;;;;4.80;3.05;;;10.00;99.90;;;;;;5153229;27;20039;-66
2023/06/04 04:04:44;;;;;;;7.15;3.50;;;10.00;99.90;;;;;;5142172;27;20047;-66
2023/06/04 04:07:10;;;;;;;7.40;3.38;;;10.00;99.90;;;;;;5134353;27;20121;-66
2023/06/04 04:09:36;;;;;;;10.75;3.22;;;10.00;99.90;;;;;;5115876;27;20043;-66
2023/06/04 04:12:05;;;;;;;7.20;3.83;;;10.00;99.90;;;;;;5134421;27;20053;-67
2023/06/04 04:14:31;;;;;;;8.13;3.60;;;10.10;99.90;;;;;;5137587;27;20091;-66
2023/06/04 04:16:57;;;;;;;7.63;3.47;;;10.10;99.90;;;;;;5098981;27;20126;-66
2023/06/04 04:19:22;;;;;;;6.20;3.70;;;10.10;99.90;;;;;;5115845;27;20054;-66
2023/06/04 04:21:48;;;;;;;6.57;3.22;;;10.20;99.90;;;;;;5152975;27;20057;-66
2023/06/04 04:24:24;;;;;;;6.18;3.15;;;10.30;99.90;;;;;;5135110;27;20117;-66
2023/06/04 04:26:53;;;;;;;;;;;10.30;99.90;;;;;;5150432;27;20035;-66
2023/06/04 04:29:24;;;;;;;6.10;3.28;;;10.30;99.90;;;;;;5145844;27;19919;-67
2023/06/04 04:31:50;;;;;;;6.18;3.00;;;10.30;99.90;;;;;;5118861;27;20043;-66
2023/06/04 04:34:16;;;;;;;6.53;3.38;;;10.40;99.90;;;;;;5147560;27;20122;-66
2023/06/04 04:36:44;;;;;;;8.57;3.80;;;10.40;99.90;;;;;;5133719;27;20054;-66
2023/06/04 04:39:10;;;;;;;5.70;3.60;;;10.50;99.90;;;;;;5140062;27;20051;-66
2023/06/04 04:41:37;;;;;;;4.78;3.08;;;10.60;99.90;;;;;;5137570;27;20038;-66
2023/06/04 04:44:05;;;;;;;7.70;3.50;;;10.70;99.90;;;;;;5123440;27;20107;-66
2023/06/04 04:46:31;;;;;;;6.63;3.60;;;10.70;99.90;;;;;;5133687;27;20050;-66
2023/06/04 04:48:56;;;;;;;7.30;3.42;;;10.80;99.90;;;;;;5143158;27;20078;-67
2023/06/04 04:51:22;;;;;;;8.82;3.78;;;10.90;99.90;;;;;;5127111;28;20086;-66
2023/06/04 04:53:48;;;;;;;6.30;4.13;;;11.00;99.90;;;;;;5115543;28;20054;-66
2023/06/04 04:56:14;;;;;;;5.95;3.53;;;11.20;99.90;;;;;;5153761;27;20103;-67
2023/06/04 04:58:40;;;;;;;5.13;3.53;;;11.20;99.90;;;;;;5133449;27;20036;-66
2023/06/04 05:01:05;;;;;;;5.90;3.47;;;11.30;99.90;;;;;;5115352;28;20387;-66
2023/06/04 05:03:31;;;;;;;6.10;3.63;;;11.40;99.90;;;;;;5147752;27;20081;-66
2023/06/04 05:05:57;;;;;;;5.85;4.00;;;11.50;99.90;;;;;;5147844;27;20039;-67
2023/06/04 05:08:22;;;;;;;7.28;3.75;;;11.60;99.90;;;;;;5115547;28;20058;-66
2023/06/04 05:10:50;;;;;;;6.63;4.03;;;11.70;99.90;;;;;;5142569;27;20114;-66
2023/06/04 05:13:16;;;;;;;8.95;4.28;;;11.80;99.90;;;;;;5148220;27;20043;-66
2023/06/04 05:15:42;;;;;;;7.07;3.90;;;11.90;99.90;;;;;;5133561;27;20510;-66
2023/06/04 05:18:08;;;;;;;5.75;4.20;;;12.00;99.90;;;;;;5133356;27;20044;-66
2023/06/04 05:20:37;;;;;;;7.18;3.80;;;12.10;99.90;;;;;;5135244;27;20039;-66
2023/06/04 05:23:03;;;;;;;6.10;4.38;;;12.20;99.90;;;;;;5142655;27;20103;-66
2023/06/04 05:25:30;;;;;;;5.82;4.40;;;12.30;99.90;;;;;;5150357;27;20073;-66
2023/06/04 05:27:58;;;;;;;5.72;3.92;;;12.40;99.90;;;;;;5140391;27;20054;-66
2023/06/04 05:30:24;;;;;;;6.45;4.10;;;12.50;99.90;;;;;;5139707;27;20057;-66
2023/06/04 05:32:50;;;;;;;9.55;4.07;;;12.50;99.90;;;;;;5150875;27;20039;-66
2023/06/04 05:35:16;;;;;;;7.00;4.53;;;12.60;99.90;;;;;;5119113;27;20054;-66
2023/06/04 05:37:42;;;;;;;7.90;4.38;;;12.70;99.90;;;;;;5119025;27;20039;-66
2023/06/04 05:40:09;;;;;;;9.32;4.63;;;12.80;99.90;;;;;;5156647;27;20043;-66
2023/06/04 05:42:35;;;;;;;5.45;3.95;;;12.90;99.90;;;;;;5157390;27;20380;-66
2023/06/04 05:45:01;;;;;;;7.95;4.30;;;13.00;99.90;;;;;;5124217;27;20035;-66
2023/06/04 05:47:31;;;;;;;8.98;4.20;;;13.10;99.90;;;;;;5129688;27;20389;-66
2023/06/04 05:49:57;;;;;;;7.32;4.20;;;13.20;99.90;;;;;;5131729;27;20109;-67
2023/06/04 05:52:23;;;;;;;7.18;4.35;;;13.20;99.90;;;;;;5118870;27;20047;-66
2023/06/04 05:54:49;;;;;;;8.40;4.30;;;13.30;99.90;;;;;;5138724;27;20372;-67
2023/06/04 05:57:15;;;;;;;5.90;4.47;;;13.40;99.90;;;;;;5137377;27;20050;-66
2023/06/04 05:59:40;;;;;;;6.72;4.63;;;13.50;99.90;;;;;;5154980;27;20074;-66
2023/06/04 06:02:07;;;;;;;7.88;4.43;;;13.60;99.90;;;;;;5119265;27;20050;-66
2023/06/04 06:04:32;;;;;;;8.95;4.50;;;13.70;99.90;;;;;;5124100;27;20055;-66
2023/06/04 06:06:58;;;;;;;6.18;4.30;;;13.80;99.90;;;;;;5157481;27;20494;-66
2023/06/04 06:09:24;;;;;;;6.03;4.07;;;13.90;99.90;;;;;;5138735;27;20047;-66
2023/06/04 06:11:49;;;;;;;9.00;4.40;;;14.00;99.90;;;;;;5154376;27;20035;-66
2023/06/04 06:14:15;;;;;;;6.95;4.38;;;14.00;99.90;;;;;;5142275;27;20031;-66
2023/06/04 06:16:41;;;;;;;7.47;4.20;;;14.10;99.90;;;;;;5117908;27;20039;-67
2023/06/04 06:19:07;;;;;;;5.35;3.90;;;14.20;99.90;;;;;;5136568;27;20038;-66
2023/06/04 06:21:32;;;;;;;6.32;4.55;;;14.30;99.90;;;;;;5135834;27;20043;-66
2023/06/04 06:23:58;;;;;;;7.05;4.28;;;14.40;99.90;;;;;;5132421;27;20077;-66
2023/06/04 06:26:25;;;;;;;5.30;3.50;;;14.50;99.90;;;;;;5139263;27;20092;-66
2023/06/04 06:28:50;;;;;;;7.68;4.15;;;14.60;99.90;;;;;;5117904;27;20047;-66
2023/06/04 06:31:16;;;;;;;7.60;3.75;;;14.70;99.90;;;;;;5144818;27;20050;-66
2023/06/04 06:33:42;;;;;;;7.78;3.58;;;14.80;99.90;;;;;;5157085;27;20070;-63
2023/06/04 06:36:13;;;;;;;7.60;3.80;;;14.90;99.90;;;;;;5136673;27;20069;-62
2023/06/04 06:38:40;;;;;;;6.20;3.67;;;14.90;99.90;;;;;;5138322;27;20077;-62
2023/06/04 06:41:06;;;;;;;5.85;3.50;;;15.00;99.90;;;;;;5136259;27;20054;-62
2023/06/04 06:43:33;;;;;;;7.78;3.67;;;15.10;99.90;;;;;;5144211;27;20046;-62
2023/06/04 06:45:58;;;;;;;4.68;3.35;;;15.30;99.90;;;;;;5142656;27;20387;-62
2023/06/04 06:48:24;;;;;;;6.15;3.17;;;15.30;99.90;;;;;;5131480;27;20039;-62
2023/06/04 06:50:50;;;;;;;5.78;3.45;;;15.40;99.90;;;;;;5128757;27;20042;-62
2023/06/04 06:53:16;;;;;;;6.93;3.17;;;15.50;99.90;;;;;;5146735;27;20470;-62
2023/06/04 06:55:41;;;;;;;5.85;2.97;;;15.50;99.90;;;;;;5134864;27;20490;-62
2023/06/04 06:58:07;;;;;;;4.80;2.47;;;15.50;99.90;;;;;;5139568;27;20139;-62
2023/06/04 07:00:33;;;;;;;6.13;2.80;;;15.60;99.90;;;;;;5149077;27;20054;-62
2023/06/04 07:02:59;;;;;;;8.52;3.25;;;15.80;99.90;;;;;;5143859;27;20046;-62
2023/06/04 07:05:24;;;;;;;4.70;2.45;;;15.90;99.90;;;;;;5135069;27;20391;-63
2023/06/04 07:07:50;;;;;;;6.53;2.60;;;16.00;99.90;;;;;;5142424;27;20088;-63
2023/06/04 07:10:16;;;;;;;4.70;2.70;;;16.10;99.90;;;;;;5140910;27;20043;-62
2023/06/04 07:12:41;;;;;;;3.38;2.22;;;16.20;99.90;;;;;;5152365;27;20074;-63
2023/06/04 07:15:09;;;;;;;3.78;2.00;;;16.30;99.90;;;;;;5132322;27;20096;-63
2023/06/04 07:17:34;;;;;;;4.82;1.90;;;16.40;99.90;;;;;;5116722;27;20098;-63
2023/06/04 07:20:00;;;;;;;2.88;1.67;;;16.50;99.90;;;;;;5151057;27;20066;-63
2023/06/04 07:22:26;;;;;;;3.95;1.75;;;16.70;99.90;;;;;;5120632;27;20524;-63
2023/06/04 07:24:52;;;;;;;4.82;1.60;;;16.80;99.90;;;;;;5137084;27;20050;-63
2023/06/04 07:27:19;;;;;;;3.72;1.77;;;16.90;99.90;;;;;;5125200;27;20463;-63
2023/06/04 07:29:45;;;;;;;4.20;1.55;;;16.90;99.90;;;;;;5128827;27;20038;-63
2023/06/04 07:32:11;;;;;;;3.63;1.42;;;17.00;99.90;;;;;;5144617;27;20043;-62
2023/06/04 07:34:38;;;;;;;4.35;1.80;;;17.10;99.90;;;;;;5149376;27;20058;-63
2023/06/04 07:37:04;;;;;;;4.47;1.60;;;17.20;99.90;;;;;;5143120;27;20114;-63
2023/06/04 07:39:30;;;;;;;5.13;1.92;;;17.40;99.90;;;;;;5154808;27;20063;-63
2023/06/04 07:41:55;;;;;;;3.28;1.52;;;17.40;99.90;;;;;;5141263;27;20055;-63
2023/06/04 07:44:21;;;;;;;3.42;1.60;;;17.50;99.90;;;;;;5147700;27;20046;-63
2023/06/04 07:46:47;;;;;;;3.33;1.55;;;17.60;99.90;;;;;;5136200;27;20042;-63
2023/06/04 07:49:12;;;;;;;3.25;1.20;;;17.70;99.90;;;;;;5153350;27;20046;-63
2023/06/04 07:51:38;;;;;;;3.75;1.30;;;17.80;99.90;;;;;;5154509;27;20509;-64
2023/06/04 07:54:04;;;;;;;5.20;1.67;;;18.00;99.90;;;;;;5154389;27;20061;-63
2023/06/04 07:56:29;;;;;;;3.17;1.52;;;18.00;99.90;;;;;;5154409;27;20047;-64
2023/06/04 07:58:55;;;;;;;5.28;2.05;;;18.10;99.90;;;;;;5153848;27;20046;-63
2023/06/04 08:01:21;;;;;;;4.03;1.48;;;18.20;99.90;;;;;;5153526;27;20045;-64
2023/06/04 08:03:47;;;;;;;4.70;1.63;;;18.20;99.90;;;;;;5153219;27;20383;-63
2023/06/04 08:06:16;;;;;;;4.07;1.60;;;18.30;99.90;;;;;;5154465;27;20444;-63
2023/06/04 08:08:45;;;;;;;3.75;1.33;;;18.30;99.90;;;;;;5149995;27;20035;-63
2023/06/04 08:11:14;;;;;;;3.63;1.52;;;18.50;99.90;;;;;;5145922;27;20099;-63
2023/06/04 08:13:40;;;;;;;4.43;1.38;;;18.60;99.90;;;;;;5135656;27;20114;-64
2023/06/04 08:16:06;;;;;;;3.40;1.40;;;18.60;99.90;;;;;;5154343;27;20038;-64
2023/06/04 08:18:32;;;;;;;4.13;1.30;;;18.80;99.90;;;;;;5146008;27;20143;-63
2023/06/04 08:20:57;;;;;;;5.78;1.33;;;18.80;99.90;;;;;;5144581;27;20057;-63
2023/06/04 08:23:23;;;;;;;7.18;1.10;;;18.90;99.90;;;;;;5137202;27;20126;-63
2023/06/04 08:25:49;;;;;;;4.40;1.30;;;19.10;99.90;;;;;;5133408;27;20399;-64
2023/06/04 08:28:19;;;;;;;2.67;1.10;;;19.10;99.90;;;;;;5133972;27;20479;-64
2023/06/04 08:30:45;;;;;;;2.67;1.20;;;19.30;99.90;;;;;;5133758;27;20105;-64
2023/06/04 08:33:11;;;;;;;2.28;1.10;;;19.40;99.90;;;;;;5132804;27;20437;-64
2023/06/04 08:35:36;;;;;;;2.88;1.33;;;19.40;99.90;;;;;;5141484;27;20043;-65
2023/06/04 08:38:02;;;;;;;4.03;1.35;;;19.50;99.90;;;;;;5146062;27;20039;-64
2023/06/04 08:40:28;;;;;;;3.15;1.20;;;19.70;99.90;;;;;;5151503;27;20042;-64
2023/06/04 08:42:59;;;;;;;3.25;1.63;;;19.80;99.90;;;;;;5153959;27;20054;-64
2023/06/04 08:45:28;;;;;;;2.22;1.15;;;19.80;99.90;;;;;;5136121;27;20122;-64
2023/06/04 08:47:54;;;;;;;3.92;1.65;;;19.90;99.90;;;;;;5133212;28;20050;-64
2023/06/04 08:50:22;;;;;;;2.63;1.40;;;19.90;99.90;;;;;;5133285;27;20062;-63
2023/06/04 08:52:56;;;;;;;3.08;1.17;;;19.90;99.90;;;;;;5133154;28;20050;-63
2023/06/04 08:55:22;;;;;;;3.42;1.27;;;20.00;99.90;;;;;;5133183;27;20079;-65
2023/06/04 08:57:51;;;;;;;2.80;1.10;;;20.10;99.90;;;;;;5132884;28;20092;-64
2023/06/04 09:00:18;;;;;;;5.00;1.70;;;20.20;99.90;;;;;;5117657;27;20571;-64
2023/06/04 09:02:45;;;;;;;2.33;0.93;;;20.20;99.90;;;;;;5136574;27;20093;-63
2023/06/04 09:05:20;;;;;;;2.97;1.15;;;20.00;99.90;;;;;;5119168;27;20391;-64
2023/06/04 09:07:48;;;;;;;3.65;1.10;;;20.10;99.90;;;;;;5136980;27;20479;-64
2023/06/04 09:10:18;;;;;;;2.92;1.30;;;20.20;99.90;;;;;;5137200;27;20043;-64
2023/06/04 09:12:46;;;;;;;4.60;1.45;;;20.40;99.90;;;;;;5137179;27;20047;-63
2023/06/04 09:15:12;;;;;;;4.63;1.48;;;20.60;99.90;;;;;;5137445;27;20073;-63
2023/06/04 09:17:38;;;;;;;2.70;1.27;;;20.70;99.90;;;;;;5136662;27;20047;-63
2023/06/04 09:20:08;;;;;;;4.20;1.13;;;20.60;99.90;;;;;;5137395;27;20096;-64
2023/06/04 09:22:35;;;;;;;3.38;1.40;;;20.70;99.90;;;;;;5142321;27;20035;-63
2023/06/04 09:25:07;;;;;;;3.05;1.00;;;20.90;99.90;;;;;;5157235;27;20047;-63
2023/06/04 09:27:40;;;;;;;2.85;1.23;;;21.10;99.90;;;;;;5158018;27;20075;-63
2023/06/04 09:30:08;;;;;;;3.92;1.52;;;21.30;99.90;;;;;;5157821;27;20054;-63
2023/06/04 09:32:34;;;;;;;2.20;0.98;;;21.40;99.90;;;;;;5119483;27;20051;-63
2023/06/04 09:35:13;;;;;;;4.28;1.20;;;21.50;99.90;;;;;;5139760;27;20039;-63
2023/06/04 09:37:51;;;;;;;2.88;1.00;;;21.50;99.90;;;;;;5151779;27;20392;-63
2023/06/04 09:40:17;;;;;;;1.67;0.85;;;21.60;99.90;;;;;;5147797;27;20055;-63
2023/06/04 09:42:53;;;;;;;5.25;1.10;;;21.70;99.90;;;;;;5137968;27;20119;-63
2023/06/04 09:45:32;;;;;;;2.33;1.00;;;21.90;99.90;;;;;;5143948;27;20165;-63
2023/06/04 09:47:59;;;;;;;3.05;1.20;;;22.00;99.90;;;;;;5135839;27;20039;-64
2023/06/04 09:50:26;;;;;;;2.28;1.10;;;22.10;99.90;;;;;;5136340;27;20108;-64
2023/06/04 09:52:53;;;;;;;2.67;1.20;;;22.10;99.90;;;;;;5119278;27;20047;-64
2023/06/04 09:55:20;;;;;;;3.85;1.40;;;22.20;99.90;;;;;;5153421;27;20056;-65
2023/06/04 09:57:51;;;;;;;2.70;0.90;;;22.20;99.90;;;;;;5152819;27;20043;-65
2023/06/04 10:00:18;;;;;;;2.90;1.00;;;22.30;99.90;;;;;;5155232;27;20053;-64
2023/06/04 10:02:48;;;;;;;2.47;1.30;;;22.30;99.90;;;;;;5135582;27;20410;-64
2023/06/04 10:05:14;;;;;;;2.35;1.08;;;22.50;99.90;;;;;;5151159;27;20043;-64
2023/06/04 10:07:44;;;;;;;3.03;1.08;;;22.60;99.90;;;;;;5156558;27;20043;-64
2023/06/04 10:10:16;;;;;;;2.17;1.10;;;22.70;99.90;;;;;;5145838;27;20045;-64
2023/06/04 10:12:42;;;;;;;2.83;1.08;;;22.90;99.90;;;;;;5117560;27;20387;-64
2023/06/04 10:15:12;;;;;;;1.98;1.00;;;23.00;99.90;;;;;;5136216;27;20077;-63
2023/06/04 10:17:39;;;;;;;1.60;0.82;;;23.10;99.90;;;;;;5135796;27;20079;-63
2023/06/04 10:20:08;;;;;;;3.08;1.10;;;23.30;99.90;;;;;;5116948;27;20047;-64
2023/06/04 10:22:37;;;;;;;2.20;1.02;;;23.40;99.90;;;;;;5123037;27;20363;-63
2023/06/04 10:25:04;;;;;;;4.10;1.27;;;23.40;99.90;;;;;;5156064;27;20513;-63
2023/06/04 10:27:36;;;;;;;3.33;1.00;;;23.40;99.90;;;;;;5156535;27;20091;-63
2023/06/04 10:30:03;;;;;;;2.70;1.17;;;23.30;99.90;;;;;;5156291;27;20045;-64
2023/06/04 10:32:29;;;;;;;2.85;1.20;;;23.10;99.90;;;;;;5119305;27;20055;-64
2023/06/04 10:34:57;;;;;;;2.60;1.10;;;23.20;99.90;;;;;;5135919;27;20407;-64
2023/06/04 10:37:24;;;;;;;2.90;1.00;;;23.20;99.90;;;;;;5138158;27;20047;-64
2023/06/04 10:39:59;;;;;;;2.95;1.17;;;23.40;99.90;;;;;;5156059;27;20070;-64
2023/06/04 10:42:25;;;;;;;2.08;1.25;;;23.50;99.90;;;;;;5156451;27;20053;-64
2023/06/04 10:44:55;;;;;;;2.53;1.20;;;23.40;99.90;;;;;;5156288;27;20035;-64
2023/06/04 10:47:25;;;;;;;2.95;1.17;;;23.40;99.90;;;;;;5156367;27;20045;-64
2023/06/04 10:49:52;;;;;;;4.03;1.23;;;23.40;99.90;;;;;;5156380;27;20045;-64
2023/06/04 10:52:18;;;;;;;1.85;1.10;;;23.40;99.90;;;;;;5156305;27;20067;-63
2023/06/04 10:54:46;;;;;;;3.08;1.00;;;23.60;99.90;;;;;;5156143;27;20494;-63
2023/06/04 10:57:16;;;;;;;2.65;0.88;;;23.90;99.90;;;;;;5156399;27;20372;-64
2023/06/04 10:59:56;;;;;;;2.20;1.00;;;24.20;99.90;;;;;;5137587;27;20042;-64
2023/06/04 11:02:22;;;;;;;4.80;1.17;;;24.30;99.90;;;;;;5154953;27;20055;-64
2023/06/04 11:05:01;;;;;;;2.45;1.00;;;24.40;99.90;;;;;;5156139;27;20045;-64
2023/06/04 11:07:27;;;;;;;2.75;0.90;;;24.50;99.90;;;;;;5156119;27;20042;-65
2023/06/04 11:09:53;;;;;;;3.80;1.00;;;24.50;99.90;;;;;;5155239;27;20050;-64
2023/06/04 11:12:19;;;;;;;3.88;0.90;;;24.50;99.90;;;;;;5155627;27;20125;-64
2023/06/04 11:14:55;;;;;;;3.60;0.95;;;24.60;99.90;;;;;;5155731;27;20142;-64
2023/06/04 11:17:21;;;;;;;2.88;0.90;;;24.70;99.90;;;;;;5155796;27;20052;-65
2023/06/04 11:19:46;;;;;;;2.92;1.20;;;24.80;99.90;;;;;;5155546;27;20121;-64
2023/06/04 11:22:12;;;;;;;2.75;0.93;;;24.80;99.90;;;;;;5134931;27;20056;-64
2023/06/04 11:24:38;;;;;;;3.13;1.33;;;24.90;99.90;;;;;;5134089;27;20050;-65
2023/06/04 11:27:04;;;;;;;1.83;0.98;;;24.90;99.90;;;;;;5134838;27;20043;-64
2023/06/04 11:29:30;;;;;;;1.98;0.90;;;25.10;99.90;;;;;;5134934;27;20128;-64
2023/06/04 11:31:57;;;;;;;1.75;0.90;;;25.30;99.90;;;;;;5147162;27;20419;-65
2023/06/04 11:34:30;;;;;;;1.90;0.98;;;25.30;99.90;;;;;;5155090;27;20042;-65
2023/06/04 11:36:55;;;;;;;1.75;0.80;;;25.30;99.90;;;;;;5134824;27;20047;-64
2023/06/04 11:39:22;;;;;;;3.17;0.90;;;25.40;99.90;;;;;;5154065;27;20050;-64
2023/06/04 11:41:50;;;;;;;1.92;0.80;;;25.40;99.90;;;;;;5154881;27;20551;-64
2023/06/04 11:44:19;;;;;;;2.45;1.20;;;25.50;99.90;;;;;;5148609;27;20044;-64
2023/06/04 11:46:48;;;;;;;1.90;0.90;;;25.50;99.90;;;;;;5120180;27;20043;-64
2023/06/04 11:49:18;;;;;;;2.20;1.00;;;25.40;99.90;;;;;;5135790;27;20046;-65
2023/06/04 11:51:51;;;;;;;3.40;0.95;;;25.30;99.90;;;;;;5150285;27;20039;-64
2023/06/04 11:54:18;;;;;;;2.17;0.82;;;25.20;99.90;;;;;;5134537;27;20047;-64
2023/06/04 11:56:44;;;;;;;2.42;0.88;;;25.30;99.90;;;;;;5116205;27;20060;-64
2023/06/04 11:59:15;;;;;;;1.90;0.90;;;25.30;99.90;;;;;;5142950;27;20042;-64
2023/06/04 12:01:42;;;;;;;1.92;1.00;;;25.30;99.90;;;;;;5137520;27;20043;-64
2023/06/04 12:04:19;;;;;;;2.75;0.95;;;25.60;99.90;;;;;;5134325;27;20047;-64
2023/06/04 12:07:00;;;;;;;1.80;0.90;;;25.80;99.90;;;;;;5134346;27;20134;-64
2023/06/04 12:09:32;;;;;;;1.88;0.80;;;26.00;99.90;;;;;;5134411;27;20043;-64
2023/06/04 12:12:02;;;;;;;2.25;0.98;;;26.10;99.90;;;;;;5134293;27;20065;-64
2023/06/04 12:14:29;;;;;;;2.00;1.00;;;26.20;99.90;;;;;;5135819;27;20039;-63
2023/06/04 12:17:00;;;;;;;2.38;0.90;;;26.30;99.90;;;;;;5139640;27;20039;-65
2023/06/04 12:19:26;;;;;;;2.15;0.93;;;26.40;99.90;;;;;;5154552;27;20578;-65
2023/06/04 12:22:07;;;;;;;2.40;1.10;;;26.50;99.90;;;;;;5135245;27;20072;-64
2023/06/04 12:24:37;;;;;;;2.10;0.80;;;26.60;99.90;;;;;;5133800;27;20042;-64
2023/06/04 12:27:03;;;;;;;1.77;0.80;;;26.60;99.90;;;;;;5137724;27;20043;-65
2023/06/04 12:29:29;;;;;;;1.90;1.00;;;26.50;99.90;;;;;;5139835;27;20061;-65
2023/06/04 12:32:15;;;;;;;2.40;1.15;;;26.60;99.90;;;;;;5148926;27;20777;-65
2023/06/04 12:34:41;;;;;;;1.70;0.88;;;26.50;98.80;;;;;;5146606;27;20050;-65
2023/06/04 12:37:07;;;;;;;2.78;1.00;;;26.40;99.40;;;;;;5149664;27;20413;-64
2023/06/04 12:39:34;;;;;;;2.33;0.90;;;26.30;99.10;;;;;;5151761;27;20042;-65
2023/06/04 12:42:00;;;;;;;2.10;1.00;;;26.40;99.30;;;;;;5152193;27;20034;-64
2023/06/04 12:44:26;;;;;;;2.33;1.05;;;26.60;99.50;;;;;;5152168;27;20042;-65
2023/06/04 12:46:51;;;;;;;2.78;1.35;;;26.60;99.00;;;;;;5151692;27;20045;-64
2023/06/04 12:49:17;;;;;;;2.35;0.90;;;26.70;99.00;;;;;;5152185;27;20050;-65